Terminal Aerodrome Forecast
Issued by NWS

Home | Current Version | Previous Version | Graphics & Text | Print | Product List | Glossary On
Versions: 1 2 3 4 5 6 7 8 9 10 11 12 13 14 15 16 17 18 19 20 21 22 23
507
FTUS43 KGRB 160525
TAFCWA
TAF
KCWA 160525Z 1606/1706 VRB04KT P6SM SCT060 BKN250
     FM161500 12008KT P6SM SCT050 BKN120
     FM170000 11010KT P6SM SCT025 OVC050 PROB30 1703/1706 5SM -TSRA
      OVC025CB=

USA.gov is the U.S. government's official web portal to all federal, state and local government web resources and services.